Time;durP1;ratioP1;P1;durP2;ratioP2;P2;SDS_P1;SDS_P2;PMS_P1;PMS_P2;Temp;Humidity;BMP_temperature;BMP_pressure;BME280_temperature;BME280_humidity;BME280_pressure;Samples;Min_cycle;Max_cycle;Signal;HPM_P1;HPM_P2
2023/04/30 00:02:00;;;;;;;;;;;;;;;;;;5034746;28;20340;-22
2023/04/30 00:04:26;;;;;;;;;;;;;;;;;;5034504;28;20009;-22
2023/04/30 00:06:52;;;;;;;;;;;;;;;;;;5034549;28;19906;-23
2023/04/30 00:09:18;;;;;;;;;;;;;;;;;;5034546;28;19921;-22
2023/04/30 00:11:44;;;;;;;;;;;;;;;;;;5034826;28;19909;-22
2023/04/30 00:14:10;;;;;;;;;;;;;;;;;;5034436;28;19909;-22
2023/04/30 00:16:36;;;;;;;;;;;;;;;;;;5034498;28;19909;-22
2023/04/30 00:19:02;;;;;;;;;;;;;;;;;;5034456;28;20025;-22
2023/04/30 00:21:28;;;;;;;;;;;;;;;;;;5033420;28;19936;-22
2023/04/30 00:23:54;;;;;;;;;;;;;;;;;;5034339;28;19912;-22
2023/04/30 00:26:20;;;;;;;;;;;;;;;;;;5034401;28;19909;-22
2023/04/30 00:28:46;;;;;;;;;;;;;;;;;;5033391;28;19909;-22
2023/04/30 00:31:12;;;;;;;;;;;;;;;;;;5034610;28;19917;-22
2023/04/30 00:33:38;;;;;;;;;;;;;;;;;;5038050;28;19909;-22
2023/04/30 00:36:04;;;;;;;;;;;;;;;;;;5038474;28;19913;-22
2023/04/30 00:38:30;;;;;;;;;;;;;;;;;;5038386;28;20036;-22
2023/04/30 00:40:56;;;;;;;;;;;;;;;;;;5038052;28;19909;-22
2023/04/30 00:43:22;;;;;;;;;;;;;;;;;;5037894;28;19913;-22
2023/04/30 00:45:48;;;;;;;;;;;;;;;;;;5038220;28;19909;-22
2023/04/30 00:48:14;;;;;;;;;;;;;;;;;;5038186;28;20076;-22
2023/04/30 00:50:40;;;;;;;;;;;;;;;;;;5037908;28;19909;-22
2023/04/30 00:53:06;;;;;;;;;;;;;;;;;;5037762;28;20297;-22
2023/04/30 00:55:32;;;;;;;;;;;;;;;;;;5038087;28;20340;-22
2023/04/30 00:57:58;;;;;;;;;;;;;;;;;;5037816;28;20248;-22
2023/04/30 01:00:24;;;;;;;;;;;;;;;;;;5037746;28;19913;-22
2023/04/30 01:02:50;;;;;;;;;;;;;;;;;;5037658;28;19913;-22
2023/04/30 01:05:16;;;;;;;;;;;;;;;;;;5037539;28;20245;-22
2023/04/30 01:07:44;;;;;;;;;;;;;;;;;;5037881;28;19988;-22
2023/04/30 01:10:10;;;;;;;;;;;;;;;;;;5037542;28;19963;-22
2023/04/30 01:12:36;;;;;;;;;;;;;;;;;;5037431;28;19913;-22
2023/04/30 01:15:02;;;;;;;;;;;;;;;;;;5037485;28;19913;-22
2023/04/30 01:17:28;;;;;;;;;;;;;;;;;;5037673;28;19909;-22
2023/04/30 01:19:54;;;;;;;;;;;;;;;;;;5037390;28;19909;-22
2023/04/30 01:22:20;;;;;;;;;;;;;;;;;;5037225;28;20278;-22
2023/04/30 01:24:46;;;;;;;;;;;;;;;;;;5037547;28;19910;-22
2023/04/30 01:27:12;;;;;;;;;;;;;;;;;;5037277;28;19909;-22
2023/04/30 01:29:38;;;;;;;;;;;;;;;;;;5037197;28;19981;-22
2023/04/30 01:32:04;;;;;;;;;;;;;;;;;;5036112;28;20144;-22
2023/04/30 01:34:30;;;;;;;;;;;;;;;;;;5037125;28;19909;-22
2023/04/30 01:36:56;;;;;;;;;;;;;;;;;;5036104;28;19988;-22
2023/04/30 01:39:22;;;;;;;;;;;;;;;;;;5037258;28;19909;-22
2023/04/30 01:41:47;;;;;;;;;;;;;;;;;;5036822;28;20347;-22
2023/04/30 01:44:13;;;;;;;;;;;;;;;;;;5036021;28;20221;-22
2023/04/30 01:46:40;;;;;;;;;;;;;;;;;;5035885;28;19916;-22
2023/04/30 01:49:05;;;;;;;;;;;;;;;;;;5036786;28;20004;-22
2023/04/30 01:51:31;;;;;;;;;;;;;;;;;;5036768;28;19948;-22
2023/04/30 01:53:57;;;;;;;;;;;;;;;;;;5036885;28;19910;-22
2023/04/30 01:56:23;;;;;;;;;;;;;;;;;;5036688;28;19959;-22
2023/04/30 01:58:49;;;;;;;;;;;;;;;;;;5036596;28;19909;-22
2023/04/30 02:01:15;;;;;;;;;;;;;;;;;;5036789;28;19905;-22
2023/04/30 02:03:41;;;;;;;;;;;;;;;;;;5036304;28;19999;-22
2023/04/30 02:06:07;;;;;;;;;;;;;;;;;;5036559;28;19959;-22
2023/04/30 02:08:33;;;;;;;;;;;;;;;;;;5036493;28;19909;-22
2023/04/30 02:10:59;;;;;;;;;;;;;;;;;;5036659;28;19920;-22
2023/04/30 02:13:25;;;;;;;;;;;;;;;;;;5036356;28;19947;-22
2023/04/30 02:15:51;;;;;;;;;;;;;;;;;;5036424;28;20285;-22
2023/04/30 02:18:17;;;;;;;;;;;;;;;;;;5036307;28;19966;-22
2023/04/30 02:20:43;;;;;;;;;;;;;;;;;;5036261;28;19909;-22
2023/04/30 02:23:09;;;;;;;;;;;;;;;;;;5036301;28;19913;-22
2023/04/30 02:25:37;;;;;;;;;;;;;;;;;;5036080;28;19909;-22
2023/04/30 02:28:03;;;;;;;;;;;;;;;;;;5036373;28;19909;-22
2023/04/30 02:30:29;;;;;;;;;;;;;;;;;;5035960;28;19909;-22
2023/04/30 02:32:55;;;;;;;;;;;;;;;;;;5035874;28;19909;-22
2023/04/30 02:35:21;;;;;;;;;;;;;;;;;;5036210;28;19987;-22
2023/04/30 02:37:47;;;;;;;;;;;;;;;;;;5035919;28;20336;-22
2023/04/30 02:40:13;;;;;;;;;;;;;;;;;;5035871;28;20351;-22
2023/04/30 02:42:39;;;;;;;;;;;;;;;;;;5035616;28;19939;-22
2023/04/30 02:45:05;;;;;;;;;;;;;;;;;;5035824;28;20008;-22
2023/04/30 02:47:31;;;;;;;;;;;;;;;;;;5036031;28;19963;-22
2023/04/30 02:49:57;;;;;;;;;;;;;;;;;;5035744;28;20009;-22
2023/04/30 02:52:23;;;;;;;;;;;;;;;;;;5035598;28;20358;-22
2023/04/30 02:54:49;;;;;;;;;;;;;;;;;;5035413;28;20000;-22
2023/04/30 02:57:15;;;;;;;;;;;;;;;;;;5035564;28;19913;-22
2023/04/30 02:59:44;;;;;;;;;;;;;;;;;;5035610;28;19975;-22
2023/04/30 03:02:10;;;;;;;;;;;;;;;;;;5035380;28;19944;-22
2023/04/30 03:04:36;;;;;;;;;;;;;;;;;;5035269;28;19936;-22
2023/04/30 03:07:02;;;;;;;;;;;;;;;;;;5035276;28;19921;-22
2023/04/30 03:09:29;;;;;;;;;;;;;;;;;;5035265;28;19952;-22
2023/04/30 03:11:55;;;;;;;;;;;;;;;;;;5035463;28;19914;-22
2023/04/30 03:14:20;;;;;;;;;;;;;;;;;;5035225;28;19916;-22
2023/04/30 03:16:46;;;;;;;;;;;;;;;;;;5035191;28;20004;-22
2023/04/30 03:19:12;;;;;;;;;;;;;;;;;;5035446;28;19916;-22
2023/04/30 03:21:38;;;;;;;;;;;;;;;;;;5034081;28;19935;-22
2023/04/30 03:24:04;;;;;;;;;;;;;;;;;;5035053;28;19917;-22
2023/04/30 03:26:30;;;;;;;;;;;;;;;;;;5035076;28;19910;-22
2023/04/30 03:28:56;;;;;;;;;;;;;;;;;;5034967;28;19916;-22
2023/04/30 03:31:22;;;;;;;;;;;;;;;;;;5035316;28;19982;-22
2023/04/30 03:33:48;;;;;;;;;;;;;;;;;;5034924;28;20351;-22
2023/04/30 03:36:14;;;;;;;;;;;;;;;;;;5034938;28;19913;-22
2023/04/30 03:38:41;;;;;;;;;;;;;;;;;;5034889;28;19909;-22
2023/04/30 03:41:07;;;;;;;;;;;;;;;;;;5034705;28;19913;-22
2023/04/30 03:43:33;;;;;;;;;;;;;;;;;;5034736;28;20303;-22
2023/04/30 03:45:59;;;;;;;;;;;;;;;;;;5034775;28;20366;-22
2023/04/30 03:48:26;;;;;;;;;;;;;;;;;;5034710;28;20348;-22
2023/04/30 03:50:52;;;;;;;;;;;;;;;;;;5034751;28;19962;-22
2023/04/30 03:53:18;;;;;;;;;;;;;;;;;;5034679;28;20347;-22
2023/04/30 03:55:43;;;;;;;;;;;;;;;;;;5034697;28;19932;-22
2023/04/30 03:58:09;;;;;;;;;;;;;;;;;;5034667;28;19924;-22
2023/04/30 04:00:35;;;;;;;;;;;;;;;;;;5034931;28;19919;-22
2023/04/30 04:03:01;;;;;;;;;;;;;;;;;;5034315;28;19920;-22
2023/04/30 04:05:28;;;;;;;;;;;;;;;;;;5034664;28;19913;-22
2023/04/30 04:07:56;;;;;;;;;;;;;;;;;;5037508;28;20190;-22
2023/04/30 04:10:22;;;;;;;;;;;;;;;;;;5038698;28;20321;-22
2023/04/30 04:12:48;;;;;;;;;;;;;;;;;;5038728;28;20336;-22
2023/04/30 04:15:14;;;;;;;;;;;;;;;;;;5038590;28;19917;-22
2023/04/30 04:17:40;;;;;;;;;;;;;;;;;;5038595;28;19921;-22
2023/04/30 04:20:06;;;;;;;;;;;;;;;;;;5038544;28;19909;-22
2023/04/30 04:22:32;;;;;;;;;;;;;;;;;;5038375;28;19967;-22
2023/04/30 04:24:58;;;;;;;;;;;;;;;;;;5038435;28;20260;-22
2023/04/30 04:27:24;;;;;;;;;;;;;;;;;;5038308;28;20516;-22
2023/04/30 04:29:50;;;;;;;;;;;;;;;;;;5038552;28;20375;-22
2023/04/30 04:32:16;;;;;;;;;;;;;;;;;;5037238;28;19992;-22
2023/04/30 04:34:42;;;;;;;;;;;;;;;;;;5038477;28;20344;-23
2023/04/30 04:37:08;;;;;;;;;;;;;;;;;;5038203;28;19909;-22
2023/04/30 04:39:36;;;;;;;;;;;;;;;;;;5038392;28;19913;-22
2023/04/30 04:42:02;;;;;;;;;;;;;;;;;;5038316;28;19913;-22
2023/04/30 04:44:28;;;;;;;;;;;;;;;;;;5038139;28;19992;-22
2023/04/30 04:46:55;;;;;;;;;;;;;;;;;;5038328;28;19952;-22
2023/04/30 04:49:21;;;;;;;;;;;;;;;;;;5038341;28;19909;-22
2023/04/30 04:51:47;;;;;;;;;;;;;;;;;;5036912;28;19905;-22
2023/04/30 04:54:13;;;;;;;;;;;;;;;;;;5038180;28;20240;-22
2023/04/30 04:56:39;;;;;;;;;;;;;;;;;;5037853;28;19906;-22
2023/04/30 04:59:05;;;;;;;;;;;;;;;;;;5038104;28;19943;-22
2023/04/30 05:01:31;;;;;;;;;;;;;;;;;;5037672;28;20012;-22
2023/04/30 05:03:57;;;;;;;;;;;;;;;;;;5037465;28;19921;-22
2023/04/30 05:06:23;;;;;;;;;;;;;;;;;;5037654;28;19976;-22
2023/04/30 05:08:49;;;;;;;;;;;;;;;;;;5037882;28;20244;-22
2023/04/30 05:11:15;;;;;;;;;;;;;;;;;;5037881;28;19913;-22
2023/04/30 05:13:41;;;;;;;;;;;;;;;;;;5037502;28;19909;-22
2023/04/30 05:16:07;;;;;;;;;;;;;;;;;;5037493;28;19915;-22
2023/04/30 05:18:33;;;;;;;;;;;;;;;;;;5037302;28;19909;-22
2023/04/30 05:20:59;;;;;;;;;;;;;;;;;;5037410;28;20309;-22
2023/04/30 05:23:25;;;;;;;;;;;;;;;;;;5037496;28;20256;-22
2023/04/30 05:25:51;;;;;;;;;;;;;;;;;;5037340;28;20382;-22
2023/04/30 05:28:17;;;;;;;;;;;;;;;;;;5037348;28;20248;-22
2023/04/30 05:30:43;;;;;;;;;;;;;;;;;;5037515;28;19909;-22
2023/04/30 05:33:09;;;;;;;;;;;;;;;;;;5037137;28;19913;-23
2023/04/30 05:35:35;;;;;;;;;;;;;;;;;;5037170;28;19940;-23
2023/04/30 05:38:01;;;;;;;;;;;;;;;;;;5037062;28;20048;-23
2023/04/30 05:40:27;;;;;;;;;;;;;;;;;;5037109;28;19909;-23
2023/04/30 05:42:53;;;;;;;;;;;;;;;;;;5035920;28;19940;-23
2023/04/30 05:45:19;;;;;;;;;;;;;;;;;;5036978;28;19909;-23
2023/04/30 05:47:45;;;;;;;;;;;;;;;;;;5035951;28;19967;-23
2023/04/30 05:50:11;;;;;;;;;;;;;;;;;;5037170;28;19944;-23
2023/04/30 05:52:37;;;;;;;;;;;;;;;;;;5036783;28;19951;-23
2023/04/30 05:55:03;;;;;;;;;;;;;;;;;;5036884;28;20344;-23
2023/04/30 05:57:29;;;;;;;;;;;;;;;;;;5036681;28;19909;-23
2023/04/30 05:59:56;;;;;;;;;;;;;;;;;;5036748;28;19910;-23
2023/04/30 06:02:22;;;;;;;;;;;;;;;;;;5036606;28;19913;-23
2023/04/30 06:04:48;;;;;;;;;;;;;;;;;;5036770;28;19921;-23
2023/04/30 06:07:14;;;;;;;;;;;;;;;;;;5036876;28;19909;-23
2023/04/30 06:09:40;;;;;;;;;;;;;;;;;;5036535;28;20009;-23
2023/04/30 06:12:06;;;;;;;;;;;;;;;;;;5036104;28;19925;-23
2023/04/30 06:14:32;;;;;;;;;;;;;;;;;;5037167;28;19909;-24
2023/04/30 06:16:58;;;;;;;;;;;;;;;;;;5036404;28;19944;-23
2023/04/30 06:19:24;;;;;;;;;;;;;;;;;;5036314;28;20348;-23
2023/04/30 06:21:50;;;;;;;;;;;;;;;;;;5036203;28;19991;-23
2023/04/30 06:24:16;;;;;;;;;;;;;;;;;;5036191;28;20368;-23
2023/04/30 06:26:42;;;;;;;;;;;;;;;;;;5036181;28;19988;-23
2023/04/30 06:29:08;;;;;;;;;;;;;;;;;;5035700;28;20349;-23
2023/04/30 06:31:34;;;;;;;;;;;;;;;;;;5035982;28;19913;-23
2023/04/30 06:34:00;;;;;;;;;;;;;;;;;;5035998;28;20305;-23
2023/04/30 06:36:26;;;;;;;;;;;;;;;;;;5035988;28;19905;-23
2023/04/30 06:38:52;;;;;;;;;;;;;;;;;;5036040;28;19935;-23
2023/04/30 06:41:18;;;;;;;;;;;;;;;;;;5035922;28;20317;-23
2023/04/30 06:43:44;;;;;;;;;;;;;;;;;;5035824;28;19932;-23
2023/04/30 06:46:10;;;;;;;;;;;;;;;;;;5035915;28;19975;-23
2023/04/30 06:48:36;;;;;;;;;;;;;;;;;;5036092;28;20277;-23
2023/04/30 06:51:02;;;;;;;;;;;;;;;;;;5035970;28;19952;-23
2023/04/30 06:53:28;;;;;;;;;;;;;;;;;;5035605;28;19909;-23
2023/04/30 06:55:54;;;;;;;;;;;;;;;;;;5035902;28;19909;-23
2023/04/30 06:58:20;;;;;;;;;;;;;;;;;;5035616;28;20340;-23
2023/04/30 07:00:46;;;;;;;;;;;;;;;;;;5035559;28;19909;-23
2023/04/30 07:03:12;;;;;;;;;;;;;;;;;;5035110;28;20304;-23
2023/04/30 07:05:38;;;;;;;;;;;;;;;;;;5035740;28;20008;-23
2023/04/30 07:08:04;;;;;;;;;;;;;;;;;;5035524;28;19913;-23
2023/04/30 07:10:30;;;;;;;;;;;;;;;;;;5035320;28;19909;-23
2023/04/30 07:12:57;;;;;;;;;;;;;;;;;;5035185;28;19909;-23
2023/04/30 07:15:23;;;;;;;;;;;;;;;;;;5034349;28;19909;-23
2023/04/30 07:17:49;;;;;;;;;;;;;;;;;;5035285;28;19909;-23
2023/04/30 07:20:15;;;;;;;;;;;;;;;;;;5035273;28;19913;-23
2023/04/30 07:22:43;;;;;;;;;;;;;;;;;;5035195;28;20400;-23
2023/04/30 07:25:09;;;;;;;;;;;;;;;;;;5035113;28;19909;-23
2023/04/30 07:27:36;;;;;;;;;;;;;;;;;;5035204;28;19909;-23
2023/04/30 07:30:01;;;;;;;;;;;;;;;;;;5035083;28;20256;-23
2023/04/30 07:32:27;;;;;;;;;;;;;;;;;;5035165;28;19910;-23
2023/04/30 07:34:53;;;;;;;;;;;;;;;;;;5035030;28;20337;-23
2023/04/30 07:37:20;;;;;;;;;;;;;;;;;;5034935;28;20288;-23
2023/04/30 07:39:46;;;;;;;;;;;;;;;;;;5035228;28;19920;-23
2023/04/30 07:42:12;;;;;;;;;;;;;;;;;;5034171;28;20013;-23
2023/04/30 07:44:38;;;;;;;;;;;;;;;;;;5034926;28;19909;-23
2023/04/30 07:47:04;;;;;;;;;;;;;;;;;;5034903;28;19909;-23
2023/04/30 07:49:30;;;;;;;;;;;;;;;;;;5034747;28;19909;-29
2023/04/30 07:51:56;;;;;;;;;;;;;;;;;;5034767;28;19909;-23
2023/04/30 07:54:22;;;;;;;;;;;;;;;;;;5034823;28;19932;-23
2023/04/30 07:56:48;;;;;;;;;;;;;;;;;;5034580;28;19909;-23
2023/04/30 07:59:14;;;;;;;;;;;;;;;;;;5035076;28;19967;-23
2023/04/30 08:01:40;;;;;;;;;;;;;;;;;;5034925;28;20004;-23
2023/04/30 08:04:06;;;;;;;;;;;;;;;;;;5034425;28;19967;-23
2023/04/30 08:06:33;;;;;;;;;;;;;;;;;;5034647;28;19916;-23
2023/04/30 08:08:59;;;;;;;;;;;;;;;;;;5034589;28;20000;-23
2023/04/30 08:11:25;;;;;;;;;;;;;;;;;;5034626;28;19913;-23
2023/04/30 08:13:51;;;;;;;;;;;;;;;;;;5034478;28;19971;-23
2023/04/30 08:16:17;;;;;;;;;;;;;;;;;;5034503;28;19909;-23
2023/04/30 08:18:43;;;;;;;;;;;;;;;;;;5034533;28;19909;-23
2023/04/30 08:21:10;;;;;;;;;;;;;;;;;;5034800;28;19910;-23
2023/04/30 08:23:36;;;;;;;;;;;;;;;;;;5034344;28;20475;-23
2023/04/30 08:26:02;;;;;;;;;;;;;;;;;;5034502;28;19917;-23
2023/04/30 08:28:28;;;;;;;;;;;;;;;;;;5034717;28;19972;-23
2023/04/30 08:30:54;;;;;;;;;;;;;;;;;;5034715;28;19952;-24
2023/04/30 08:33:20;;;;;;;;;;;;;;;;;;5034384;28;19917;-24
2023/04/30 08:35:45;;;;;;;;;;;;;;;;;;5034661;28;19959;-23
2023/04/30 08:38:12;;;;;;;;;;;;;;;;;;5033435;28;19913;-23
2023/04/30 08:40:38;;;;;;;;;;;;;;;;;;5034415;28;19992;-23
2023/04/30 08:43:04;;;;;;;;;;;;;;;;;;5034709;28;20024;-23
2023/04/30 08:45:30;;;;;;;;;;;;;;;;;;5034294;28;19909;-23
2023/04/30 08:47:58;;;;;;;;;;;;;;;;;;5034260;28;19909;-23
2023/04/30 08:50:24;;;;;;;;;;;;;;;;;;5034788;28;19913;-23
2023/04/30 08:52:50;;;;;;;;;;;;;;;;;;5035025;28;19955;-23
2023/04/30 08:55:16;;;;;;;;;;;;;;;;;;5037938;28;20244;-23
2023/04/30 08:57:42;;;;;;;;;;;;;;;;;;5036955;28;19909;-23
2023/04/30 09:00:08;;;;;;;;;;;;;;;;;;5036822;28;19909;-23
2023/04/30 09:02:34;;;;;;;;;;;;;;;;;;5037578;28;19920;-23
2023/04/30 09:05:00;;;;;;;;;;;;;;;;;;5037906;28;19931;-23
2023/04/30 09:07:27;;;;;;;;;;;;;;;;;;5037938;28;19995;-23
2023/04/30 09:09:53;;;;;;;;;;;;;;;;;;5037617;28;20004;-23
2023/04/30 09:12:21;;;;;;;;;;;;;;;;;;5037528;28;19940;-23
2023/04/30 09:14:47;;;;;;;;;;;;;;;;;;5037814;28;19943;-23
2023/04/30 09:17:13;;;;;;;;;;;;;;;;;;5037556;28;20337;-23
2023/04/30 09:19:39;;;;;;;;;;;;;;;;;;5037514;28;19909;-23
2023/04/30 09:22:05;;;;;;;;;;;;;;;;;;5037387;28;19923;-23
2023/04/30 09:24:31;;;;;;;;;;;;;;;;;;5036378;28;19909;-24
2023/04/30 09:26:57;;;;;;;;;;;;;;;;;;5037539;28;19916;-23
2023/04/30 09:29:23;;;;;;;;;;;;;;;;;;5037261;28;20280;-23
2023/04/30 09:31:49;;;;;;;;;;;;;;;;;;5037153;28;19913;-23
2023/04/30 09:34:15;;;;;;;;;;;;;;;;;;5037227;28;19924;-23
2023/04/30 09:36:41;;;;;;;;;;;;;;;;;;5037354;28;20332;-23
2023/04/30 09:39:07;;;;;;;;;;;;;;;;;;5037342;28;20214;-23
2023/04/30 09:41:33;;;;;;;;;;;;;;;;;;5036975;28;20300;-23
2023/04/30 09:43:59;;;;;;;;;;;;;;;;;;5036974;28;19944;-23
2023/04/30 09:46:25;;;;;;;;;;;;;;;;;;5037267;28;19967;-23
2023/04/30 09:48:51;;;;;;;;;;;;;;;;;;5037236;28;19909;-23
2023/04/30 09:51:17;;;;;;;;;;;;;;;;;;5036949;28;19910;-23
2023/04/30 09:53:43;;;;;;;;;;;;;;;;;;5036782;28;19909;-23
2023/04/30 09:56:09;;;;;;;;;;;;;;;;;;5036898;28;19920;-23
2023/04/30 09:58:36;;;;;;;;;;;;;;;;;;5036702;28;19909;-23
2023/04/30 10:01:02;;;;;;;;;;;;;;;;;;5036714;28;20004;-23
2023/04/30 10:03:28;;;;;;;;;;;;;;;;;;5036257;28;19933;-23
2023/04/30 10:05:54;;;;;;;;;;;;;;;;;;5035890;28;19905;-23
2023/04/30 10:08:20;;;;;;;;;;;;;;;;;;5036548;28;20387;-23
2023/04/30 10:10:46;;;;;;;;;;;;;;;;;;5036517;28;19912;-23
2023/04/30 10:13:12;;;;;;;;;;;;;;;;;;5036408;28;20336;-23
2023/04/30 10:15:38;;;;;;;;;;;;;;;;;;5036392;28;19905;-23
2023/04/30 10:18:04;;;;;;;;;;;;;;;;;;5036316;28;19913;-23
2023/04/30 10:20:30;;;;;;;;;;;;;;;;;;5036555;28;19956;-23
2023/04/30 10:22:56;;;;;;;;;;;;;;;;;;5036130;28;19921;-23
2023/04/30 10:25:25;;;;;;;;;;;;;;;;;;5036293;28;19959;-23
2023/04/30 10:27:51;;;;;;;;;;;;;;;;;;5036426;28;20299;-23
2023/04/30 10:30:17;;;;;;;;;;;;;;;;;;5036197;28;19909;-23
2023/04/30 10:32:43;;;;;;;;;;;;;;;;;;5035062;28;19913;-23
2023/04/30 10:35:09;;;;;;;;;;;;;;;;;;5036369;28;20359;-23
2023/04/30 10:37:35;;;;;;;;;;;;;;;;;;5036057;28;19909;-23
2023/04/30 10:40:03;;;;;;;;;;;;;;;;;;5035949;28;19963;-23
2023/04/30 10:42:30;;;;;;;;;;;;;;;;;;5035807;28;19920;-23
2023/04/30 10:44:56;;;;;;;;;;;;;;;;;;5035824;28;20287;-23
2023/04/30 10:47:22;;;;;;;;;;;;;;;;;;5036132;28;19909;-23
2023/04/30 10:49:48;;;;;;;;;;;;;;;;;;5035961;28;19924;-23
2023/04/30 10:52:14;;;;;;;;;;;;;;;;;;5035903;28;19909;-23
2023/04/30 10:54:41;;;;;;;;;;;;;;;;;;5035981;28;20297;-23
2023/04/30 10:57:08;;;;;;;;;;;;;;;;;;5035662;28;20007;-23
2023/04/30 10:59:35;;;;;;;;;;;;;;;;;;5034580;28;19967;-23
2023/04/30 11:02:02;;;;;;;;;;;;;;;;;;5035705;28;19935;-23
2023/04/30 11:04:28;;;;;;;;;;;;;;;;;;5035349;28;19921;-23
2023/04/30 11:06:54;;;;;;;;;;;;;;;;;;5035725;28;20004;-23
2023/04/30 11:09:20;;;;;;;;;;;;;;;;;;5035500;28;19996;-23
2023/04/30 11:11:49;;;;;;;;;;;;;;;;;;5035226;28;20323;-23
2023/04/30 11:14:15;;;;;;;;;;;;;;;;;;5035669;28;19918;-23
2023/04/30 11:16:41;;;;;;;;;;;;;;;;;;5035364;28;19918;-23
2023/04/30 11:19:06;;;;;;;;;;;;;;;;;;5035515;28;19952;-23
2023/04/30 11:21:32;;;;;;;;;;;;;;;;;;5035069;28;19905;-23
2023/04/30 11:23:58;;;;;;;;;;;;;;;;;;5035060;28;19909;-23
2023/04/30 11:26:24;;;;;;;;;;;;;;;;;;5035161;28;19913;-23
2023/04/30 11:28:53;;;;;;;;;;;;;;;;;;5035326;28;19909;-23
2023/04/30 11:31:19;;;;;;;;;;;;;;;;;;5035003;28;20012;-23
2023/04/30 11:33:45;;;;;;;;;;;;;;;;;;5034932;28;20321;-23
2023/04/30 11:36:11;;;;;;;;;;;;;;;;;;5035495;28;20248;-23
2023/04/30 11:38:37;;;;;;;;;;;;;;;;;;5035207;28;20319;-23
2023/04/30 11:41:03;;;;;;;;;;;;;;;;;;5034961;28;19909;-23
2023/04/30 11:43:29;;;;;;;;;;;;;;;;;;5034936;28;19939;-23
2023/04/30 11:45:55;;;;;;;;;;;;;;;;;;5034797;28;19909;-23
2023/04/30 11:48:21;;;;;;;;;;;;;;;;;;5035105;28;19967;-23
2023/04/30 11:50:47;;;;;;;;;;;;;;;;;;5033777;28;19917;-23
2023/04/30 11:53:13;;;;;;;;;;;;;;;;;;5034992;28;19967;-23
2023/04/30 11:55:40;;;;;;;;;;;;;;;;;;5034983;28;19909;-23
2023/04/30 11:58:06;;;;;;;;;;;;;;;;;;5034740;28;19951;-23
2023/04/30 12:00:32;;;;;;;;;;;;;;;;;;5034909;28;19909;-23
2023/04/30 12:02:58;;;;;;;;;;;;;;;;;;5033282;28;20002;-23
2023/04/30 12:05:24;;;;;;;;;;;;;;;;;;5034967;28;19913;-23
2023/04/30 12:07:50;;;;;;;;;;;;;;;;;;5034696;28;19910;-23
2023/04/30 12:10:16;;;;;;;;;;;;;;;;;;5034874;28;19916;-23
2023/04/30 12:12:42;;;;;;;;;;;;;;;;;;5034552;28;19909;-23
2023/04/30 12:15:08;;;;;;;;;;;;;;;;;;5033618;28;19913;-23
2023/04/30 12:17:35;;;;;;;;;;;;;;;;;;5034524;28;19916;-23
2023/04/30 12:20:01;;;;;;;;;;;;;;;;;;5034569;28;20363;-23
2023/04/30 12:22:27;;;;;;;;;;;;;;;;;;5034334;28;19913;-23
2023/04/30 12:24:52;;;;;;;;;;;;;;;;;;5034511;28;19910;-23
2023/04/30 12:27:18;;;;;;;;;;;;;;;;;;5034863;28;19909;-23
2023/04/30 12:29:46;;;;;;;;;;;;;;;;;;5038416;28;19913;-23
2023/04/30 12:32:15;;;;;;;;;;;;;;;;;;5038357;28;19968;-23
2023/04/30 12:34:41;;;;;;;;;;;;;;;;;;5038348;28;19921;-23
2023/04/30 12:37:07;;;;;;;;;;;;;;;;;;5038308;28;19936;-23
2023/04/30 12:39:33;;;;;;;;;;;;;;;;;;5038534;28;20337;-23
2023/04/30 12:41:59;;;;;;;;;;;;;;;;;;5038365;28;19917;-23
2023/04/30 12:44:26;;;;;;;;;;;;;;;;;;5038461;28;19952;-23
2023/04/30 12:46:54;;;;;;;;;;;;;;;;;;5038371;28;19945;-23
2023/04/30 12:49:21;;;;;;;;;;;;;;;;;;5038073;28;19909;-23
2023/04/30 12:51:47;;;;;;;;;;;;;;;;;;5037911;28;19927;-23
2023/04/30 12:54:13;;;;;;;;;;;;;;;;;;5037982;28;19909;-23
2023/04/30 12:56:41;;;;;;;;;;;;;;;;;;5038159;28;20328;-23
2023/04/30 12:59:07;;;;;;;;;;;;;;;;;;5038190;28;19909;-23
2023/04/30 13:01:34;;;;;;;;;;;;;;;;;;5037790;28;20316;-23
2023/04/30 13:04:00;;;;;;;;;;;;;;;;;;5037539;28;20015;-23
2023/04/30 13:06:27;;;;;;;;;;;;;;;;;;5037777;28;19979;-23
2023/04/30 13:08:54;;;;;;;;;;;;;;;;;;5037737;28;19920;-23
2023/04/30 13:11:20;;;;;;;;;;;;;;;;;;5036713;28;19909;-23
2023/04/30 13:13:46;;;;;;;;;;;;;;;;;;5037595;28;20356;-23
2023/04/30 13:16:12;;;;;;;;;;;;;;;;;;5037597;28;19959;-23
2023/04/30 13:18:38;;;;;;;;;;;;;;;;;;5037555;28;20003;-23
2023/04/30 13:21:04;;;;;;;;;;;;;;;;;;5037448;28;19921;-23
2023/04/30 13:23:30;;;;;;;;;;;;;;;;;;5036295;28;19913;-23
2023/04/30 13:25:56;;;;;;;;;;;;;;;;;;5037370;28;19940;-23
2023/04/30 13:28:22;;;;;;;;;;;;;;;;;;5037319;28;19909;-23
2023/04/30 13:30:48;;;;;;;;;;;;;;;;;;5037288;28;19909;-23
2023/04/30 13:33:14;;;;;;;;;;;;;;;;;;5037424;28;19919;-23
2023/04/30 13:35:40;;;;;;;;;;;;;;;;;;5037150;28;19944;-23
2023/04/30 13:38:06;;;;;;;;;;;;;;;;;;5037208;28;19909;-23
2023/04/30 13:40:32;;;;;;;;;;;;;;;;;;5037040;28;19921;-23
2023/04/30 13:42:58;;;;;;;;;;;;;;;;;;5036917;28;19920;-23
2023/04/30 13:45:24;;;;;;;;;;;;;;;;;;5037314;28;19971;-23
2023/04/30 13:47:50;;;;;;;;;;;;;;;;;;5036999;28;19917;-24
2023/04/30 13:50:16;;;;;;;;;;;;;;;;;;5037206;28;19996;-23
2023/04/30 13:52:42;;;;;;;;;;;;;;;;;;5036792;28;20010;-24
2023/04/30 13:55:08;;;;;;;;;;;;;;;;;;5036804;28;19936;-23
2023/04/30 13:57:34;;;;;;;;;;;;;;;;;;5036797;28;20097;-23
2023/04/30 14:00:01;;;;;;;;;;;;;;;;;;5036707;28;19948;-23
2023/04/30 14:02:27;;;;;;;;;;;;;;;;;;5036605;28;19913;-23
2023/04/30 14:04:53;;;;;;;;;;;;;;;;;;5036545;28;19928;-23
2023/04/30 14:07:19;;;;;;;;;;;;;;;;;;5036653;28;20333;-23
2023/04/30 14:09:45;;;;;;;;;;;;;;;;;;5036776;28;20297;-24
2023/04/30 14:12:10;;;;;;;;;;;;;;;;;;5036473;28;19967;-23
2023/04/30 14:14:36;;;;;;;;;;;;;;;;;;5036725;28;19923;-23
2023/04/30 14:17:03;;;;;;;;;;;;;;;;;;5036452;28;19988;-23
2023/04/30 14:19:29;;;;;;;;;;;;;;;;;;5035390;28;19965;-23
2023/04/30 14:21:56;;;;;;;;;;;;;;;;;;5036437;28;19960;-23
2023/04/30 14:24:22;;;;;;;;;;;;;;;;;;5036615;28;19909;-23
2023/04/30 14:26:48;;;;;;;;;;;;;;;;;;5036185;28;19944;-23
2023/04/30 14:29:14;;;;;;;;;;;;;;;;;;5036211;28;19953;-23
2023/04/30 14:31:40;;;;;;;;;;;;;;;;;;5036229;28;19936;-23
2023/04/30 14:34:06;;;;;;;;;;;;;;;;;;5036257;28;19916;-23
2023/04/30 14:36:32;;;;;;;;;;;;;;;;;;5036018;28;19944;-23
2023/04/30 14:38:58;;;;;;;;;;;;;;;;;;5035985;28;20336;-23
2023/04/30 14:41:24;;;;;;;;;;;;;;;;;;5035905;28;20335;-23
2023/04/30 14:43:51;;;;;;;;;;;;;;;;;;5035993;28;20347;-23
2023/04/30 14:46:17;;;;;;;;;;;;;;;;;;5035808;28;20233;-23
2023/04/30 14:48:44;;;;;;;;;;;;;;;;;;5036131;28;19917;-24
2023/04/30 14:51:10;;;;;;;;;;;;;;;;;;5035316;28;20323;-23
2023/04/30 14:53:36;;;;;;;;;;;;;;;;;;5035657;28;20087;-23
2023/04/30 14:56:02;;;;;;;;;;;;;;;;;;5035697;28;19959;-23
2023/04/30 14:58:28;;;;;;;;;;;;;;;;;;5035562;28;19963;-23
2023/04/30 15:00:55;;;;;;;;;;;;;;;;;;5035548;28;19917;-23
2023/04/30 15:03:20;;;;;;;;;;;;;;;;;;5035308;28;20382;-23
2023/04/30 15:05:48;;;;;;;;;;;;;;;;;;5035708;28;19905;-23
2023/04/30 15:08:15;;;;;;;;;;;;;;;;;;5035477;28;19916;-24
2023/04/30 15:10:41;;;;;;;;;;;;;;;;;;5035364;28;19905;-24
2023/04/30 15:13:07;;;;;;;;;;;;;;;;;;5035193;28;19916;-23
2023/04/30 15:15:33;;;;;;;;;;;;;;;;;;5035530;28;19905;-23
2023/04/30 15:18:00;;;;;;;;;;;;;;;;;;5035160;28;20372;-23
2023/04/30 15:20:26;;;;;;;;;;;;;;;;;;5035259;28;19905;-23
2023/04/30 15:22:53;;;;;;;;;;;;;;;;;;5033955;28;19924;-24
2023/04/30 15:25:19;;;;;;;;;;;;;;;;;;5035073;28;19909;-24
2023/04/30 15:27:45;;;;;;;;;;;;;;;;;;5035323;28;19913;-24
2023/04/30 15:30:11;;;;;;;;;;;;;;;;;;5035040;28;19909;-24
2023/04/30 15:32:37;;;;;;;;;;;;;;;;;;5034974;28;19909;-23
2023/04/30 15:35:03;;;;;;;;;;;;;;;;;;5034964;28;20352;-23
2023/04/30 15:37:29;;;;;;;;;;;;;;;;;;5035175;28;19959;-23
2023/04/30 15:39:55;;;;;;;;;;;;;;;;;;5035205;28;20260;-23
2023/04/30 15:42:21;;;;;;;;;;;;;;;;;;5034940;28;19913;-23
2023/04/30 15:44:47;;;;;;;;;;;;;;;;;;5034881;28;19955;-23
2023/04/30 15:47:13;;;;;;;;;;;;;;;;;;5034880;28;19909;-23
2023/04/30 15:49:39;;;;;;;;;;;;;;;;;;5035040;28;19913;-23
2023/04/30 15:52:05;;;;;;;;;;;;;;;;;;5034687;28;19945;-23
2023/04/30 15:54:31;;;;;;;;;;;;;;;;;;5034763;28;20411;-23
2023/04/30 15:56:58;;;;;;;;;;;;;;;;;;5034710;28;20051;-23
2023/04/30 15:59:24;;;;;;;;;;;;;;;;;;5035021;28;19916;-23
2023/04/30 16:01:50;;;;;;;;;;;;;;;;;;5034329;28;19909;-23
2023/04/30 16:04:16;;;;;;;;;;;;;;;;;;5034062;28;19925;-23
2023/04/30 16:06:42;;;;;;;;;;;;;;;;;;5034684;28;19916;-23
2023/04/30 16:09:08;;;;;;;;;;;;;;;;;;5034653;28;20303;-23
2023/04/30 16:11:34;;;;;;;;;;;;;;;;;;5034577;28;20106;-23
2023/04/30 16:14:00;;;;;;;;;;;;;;;;;;5034554;28;19909;-23
2023/04/30 16:16:27;;;;;;;;;;;;;;;;;;5034524;28;19909;-24
2023/04/30 16:18:53;;;;;;;;;;;;;;;;;;5034810;28;19936;-23
2023/04/30 16:21:19;;;;;;;;;;;;;;;;;;5034533;28;19909;-24
2023/04/30 16:23:46;;;;;;;;;;;;;;;;;;5034330;28;19917;-23
2023/04/30 16:26:12;;;;;;;;;;;;;;;;;;5033488;28;20363;-23
2023/04/30 16:28:38;;;;;;;;;;;;;;;;;;5034696;28;19917;-23
2023/04/30 16:31:04;;;;;;;;;;;;;;;;;;5034420;28;19920;-23
2023/04/30 16:33:30;;;;;;;;;;;;;;;;;;5034411;28;20006;-23
2023/04/30 16:35:56;;;;;;;;;;;;;;;;;;5034673;28;19963;-23
2023/04/30 16:38:22;;;;;;;;;;;;;;;;;;5034353;28;19913;-23